sensor_id;sensor_type;location;lat;lon;timestamp;P1;durP1;ratioP1;P2;durP2;ratioP2
21494;SDS011;10909;53.590;10.054;2022-07-19T00:01:44;6.75;;;5.38;;
21494;SDS011;10909;53.590;10.054;2022-07-19T00:04:10;6.10;;;5.47;;
21494;SDS011;10909;53.590;10.054;2022-07-19T00:06:36;6.03;;;5.40;;
21494;SDS011;10909;53.590;10.054;2022-07-19T00:09:02;6.28;;;5.43;;
21494;SDS011;10909;53.590;10.054;2022-07-19T00:11:29;6.03;;;5.28;;
21494;SDS011;10909;53.590;10.054;2022-07-19T00:13:54;6.00;;;5.40;;
21494;SDS011;10909;53.590;10.054;2022-07-19T00:16:26;5.40;;;4.90;;
21494;SDS011;10909;53.590;10.054;2022-07-19T00:18:52;5.63;;;5.00;;
21494;SDS011;10909;53.590;10.054;2022-07-19T00:21:30;7.57;;;5.10;;
21494;SDS011;10909;53.590;10.054;2022-07-19T00:23:56;6.68;;;5.18;;
21494;SDS011;10909;53.590;10.054;2022-07-19T00:26:34;6.50;;;5.05;;
21494;SDS011;10909;53.590;10.054;2022-07-19T00:28:59;5.53;;;4.85;;
21494;SDS011;10909;53.590;10.054;2022-07-19T00:31:36;5.65;;;4.95;;
21494;SDS011;10909;53.590;10.054;2022-07-19T00:34:01;5.88;;;5.25;;
21494;SDS011;10909;53.590;10.054;2022-07-19T00:36:27;5.22;;;4.72;;
21494;SDS011;10909;53.590;10.054;2022-07-19T00:38:53;6.57;;;5.22;;
21494;SDS011;10909;53.590;10.054;2022-07-19T00:44:04;5.55;;;5.00;;
21494;SDS011;10909;53.590;10.054;2022-07-19T00:46:30;5.85;;;5.15;;
21494;SDS011;10909;53.590;10.054;2022-07-19T00:48:56;6.60;;;5.90;;
21494;SDS011;10909;53.590;10.054;2022-07-19T00:51:21;6.65;;;5.50;;
21494;SDS011;10909;53.590;10.054;2022-07-19T00:53:47;6.15;;;5.03;;
21494;SDS011;10909;53.590;10.054;2022-07-19T00:56:29;6.43;;;5.03;;
21494;SDS011;10909;53.590;10.054;2022-07-19T00:58:59;6.38;;;5.35;;
21494;SDS011;10909;53.590;10.054;2022-07-19T01:01:29;6.60;;;5.20;;
21494;SDS011;10909;53.590;10.054;2022-07-19T01:03:56;6.65;;;5.00;;
21494;SDS011;10909;53.590;10.054;2022-07-19T01:06:31;6.28;;;5.55;;
21494;SDS011;10909;53.590;10.054;2022-07-19T01:08:57;5.80;;;4.82;;
21494;SDS011;10909;53.590;10.054;2022-07-19T01:11:23;5.82;;;5.22;;
21494;SDS011;10909;53.590;10.054;2022-07-19T01:13:48;5.53;;;4.82;;
21494;SDS011;10909;53.590;10.054;2022-07-19T01:16:23;7.38;;;5.28;;
21494;SDS011;10909;53.590;10.054;2022-07-19T01:18:49;5.40;;;4.90;;
21494;SDS011;10909;53.590;10.054;2022-07-19T01:24:08;5.53;;;4.90;;
21494;SDS011;10909;53.590;10.054;2022-07-19T01:26:33;6.32;;;5.38;;
21494;SDS011;10909;53.590;10.054;2022-07-19T01:28:59;5.85;;;5.25;;
21494;SDS011;10909;53.590;10.054;2022-07-19T01:31:25;5.25;;;4.63;;
21494;SDS011;10909;53.590;10.054;2022-07-19T01:33:50;7.20;;;5.30;;
21494;SDS011;10909;53.590;10.054;2022-07-19T01:36:20;6.20;;;4.63;;
21494;SDS011;10909;53.590;10.054;2022-07-19T01:38:45;5.03;;;4.53;;
21494;SDS011;10909;53.590;10.054;2022-07-19T01:41:29;5.60;;;5.07;;
21494;SDS011;10909;53.590;10.054;2022-07-19T01:43:55;6.05;;;5.10;;
21494;SDS011;10909;53.590;10.054;2022-07-19T01:46:23;5.15;;;4.65;;
21494;SDS011;10909;53.590;10.054;2022-07-19T01:48:49;6.15;;;5.18;;
21494;SDS011;10909;53.590;10.054;2022-07-19T01:54:08;5.97;;;4.75;;
21494;SDS011;10909;53.590;10.054;2022-07-19T01:56:34;6.80;;;4.65;;
21494;SDS011;10909;53.590;10.054;2022-07-19T01:58:59;5.10;;;4.53;;
21494;SDS011;10909;53.590;10.054;2022-07-19T02:01:25;5.43;;;4.93;;
21494;SDS011;10909;53.590;10.054;2022-07-19T02:03:50;4.80;;;4.32;;
21494;SDS011;10909;53.590;10.054;2022-07-19T02:06:26;5.63;;;4.28;;
21494;SDS011;10909;53.590;10.054;2022-07-19T02:08:52;5.63;;;4.72;;
21494;SDS011;10909;53.590;10.054;2022-07-19T02:14:20;5.30;;;4.78;;
21494;SDS011;10909;53.590;10.054;2022-07-19T02:16:46;5.80;;;4.82;;
21494;SDS011;10909;53.590;10.054;2022-07-19T02:19:12;6.63;;;5.20;;
21494;SDS011;10909;53.590;10.054;2022-07-19T02:21:38;5.30;;;4.60;;
21494;SDS011;10909;53.590;10.054;2022-07-19T02:24:05;6.00;;;4.60;;
21494;SDS011;10909;53.590;10.054;2022-07-19T02:26:32;6.40;;;4.68;;
21494;SDS011;10909;53.590;10.054;2022-07-19T02:28:58;6.18;;;5.13;;
21494;SDS011;10909;53.590;10.054;2022-07-19T02:31:24;4.88;;;4.38;;
21494;SDS011;10909;53.590;10.054;2022-07-19T02:33:49;6.38;;;4.70;;
21494;SDS011;10909;53.590;10.054;2022-07-19T02:36:30;4.85;;;4.38;;
21494;SDS011;10909;53.590;10.054;2022-07-19T02:38:56;5.20;;;4.70;;
21494;SDS011;10909;53.590;10.054;2022-07-19T02:44:11;5.07;;;4.57;;
21494;SDS011;10909;53.590;10.054;2022-07-19T02:46:36;4.85;;;3.97;;
21494;SDS011;10909;53.590;10.054;2022-07-19T02:49:02;5.22;;;4.43;;
21494;SDS011;10909;53.590;10.054;2022-07-19T02:51:34;5.32;;;4.03;;
21494;SDS011;10909;53.590;10.054;2022-07-19T02:54:00;4.35;;;3.90;;
21494;SDS011;10909;53.590;10.054;2022-07-19T02:56:26;6.03;;;4.50;;
21494;SDS011;10909;53.590;10.054;2022-07-19T02:58:51;5.47;;;4.45;;
21494;SDS011;10909;53.590;10.054;2022-07-19T03:01:20;5.85;;;4.15;;
21494;SDS011;10909;53.590;10.054;2022-07-19T03:03:45;5.15;;;4.65;;
21494;SDS011;10909;53.590;10.054;2022-07-19T03:06:27;5.15;;;4.65;;
21494;SDS011;10909;53.590;10.054;2022-07-19T03:08:53;5.10;;;4.60;;
21494;SDS011;10909;53.590;10.054;2022-07-19T03:11:25;4.72;;;4.20;;
21494;SDS011;10909;53.590;10.054;2022-07-19T03:13:50;6.95;;;4.45;;
21494;SDS011;10909;53.590;10.054;2022-07-19T03:16:23;4.97;;;4.45;;
21494;SDS011;10909;53.590;10.054;2022-07-19T03:18:48;5.13;;;4.25;;
21494;SDS011;10909;53.590;10.054;2022-07-19T03:21:23;5.80;;;4.35;;
21494;SDS011;10909;53.590;10.054;2022-07-19T03:23:49;5.45;;;4.13;;
21494;SDS011;10909;53.590;10.054;2022-07-19T03:26:33;5.25;;;4.45;;
21494;SDS011;10909;53.590;10.054;2022-07-19T03:28:59;5.18;;;4.65;;
21494;SDS011;10909;53.590;10.054;2022-07-19T03:31:33;5.55;;;4.47;;
21494;SDS011;10909;53.590;10.054;2022-07-19T03:33:59;5.05;;;4.07;;
21494;SDS011;10909;53.590;10.054;2022-07-19T03:36:25;5.32;;;4.30;;
21494;SDS011;10909;53.590;10.054;2022-07-19T03:38:50;5.35;;;4.75;;
21494;SDS011;10909;53.590;10.054;2022-07-19T03:41:26;5.90;;;4.57;;
21494;SDS011;10909;53.590;10.054;2022-07-19T03:43:51;4.85;;;4.18;;
21494;SDS011;10909;53.590;10.054;2022-07-19T03:46:26;5.00;;;4.50;;
21494;SDS011;10909;53.590;10.054;2022-07-19T03:48:54;4.85;;;4.35;;
21494;SDS011;10909;53.590;10.054;2022-07-19T03:51:23;5.30;;;4.40;;
21494;SDS011;10909;53.590;10.054;2022-07-19T03:53:49;4.95;;;4.40;;
21494;SDS011;10909;53.590;10.054;2022-07-19T03:56:27;5.43;;;4.93;;
21494;SDS011;10909;53.590;10.054;2022-07-19T03:58:53;4.97;;;4.47;;
21494;SDS011;10909;53.590;10.054;2022-07-19T04:01:28;5.93;;;4.75;;
21494;SDS011;10909;53.590;10.054;2022-07-19T04:03:53;4.80;;;4.30;;
21494;SDS011;10909;53.590;10.054;2022-07-19T04:06:22;5.05;;;4.57;;
21494;SDS011;10909;53.590;10.054;2022-07-19T04:08:47;4.78;;;4.30;;
21494;SDS011;10909;53.590;10.054;2022-07-19T04:11:31;5.82;;;4.72;;
21494;SDS011;10909;53.590;10.054;2022-07-19T04:13:57;4.65;;;4.20;;
21494;SDS011;10909;53.590;10.054;2022-07-19T04:16:29;7.00;;;5.05;;
21494;SDS011;10909;53.590;10.054;2022-07-19T04:18:55;5.40;;;4.63;;
21494;SDS011;10909;53.590;10.054;2022-07-19T04:21:27;6.50;;;4.68;;
21494;SDS011;10909;53.590;10.054;2022-07-19T04:23:52;5.57;;;4.45;;
21494;SDS011;10909;53.590;10.054;2022-07-19T04:26:21;6.43;;;4.40;;
21494;SDS011;10909;53.590;10.054;2022-07-19T04:28:47;5.22;;;4.72;;
21494;SDS011;10909;53.590;10.054;2022-07-19T04:34:12;4.90;;;4.10;;
21494;SDS011;10909;53.590;10.054;2022-07-19T04:36:38;6.63;;;4.60;;
21494;SDS011;10909;53.590;10.054;2022-07-19T04:39:03;5.07;;;4.30;;
21494;SDS011;10909;53.590;10.054;2022-07-19T04:41:29;5.20;;;4.57;;
21494;SDS011;10909;53.590;10.054;2022-07-19T04:43:55;5.45;;;4.45;;
21494;SDS011;10909;53.590;10.054;2022-07-19T04:46:29;5.60;;;4.75;;
21494;SDS011;10909;53.590;10.054;2022-07-19T04:48:55;6.88;;;5.07;;
21494;SDS011;10909;53.590;10.054;2022-07-19T04:51:30;5.22;;;4.50;;
21494;SDS011;10909;53.590;10.054;2022-07-19T04:53:55;5.43;;;4.43;;
21494;SDS011;10909;53.590;10.054;2022-07-19T04:56:27;4.28;;;3.47;;
21494;SDS011;10909;53.590;10.054;2022-07-19T04:58:53;5.72;;;4.45;;
21494;SDS011;10909;53.590;10.054;2022-07-19T05:01:27;5.43;;;4.88;;
21494;SDS011;10909;53.590;10.054;2022-07-19T05:03:55;5.45;;;4.60;;
21494;SDS011;10909;53.590;10.054;2022-07-19T05:06:24;5.32;;;4.60;;
21494;SDS011;10909;53.590;10.054;2022-07-19T05:08:50;5.20;;;4.43;;
21494;SDS011;10909;53.590;10.054;2022-07-19T05:11:18;6.00;;;5.10;;
21494;SDS011;10909;53.590;10.054;2022-07-19T05:13:44;6.53;;;5.15;;
21494;SDS011;10909;53.590;10.054;2022-07-19T05:16:25;5.55;;;4.93;;
21494;SDS011;10909;53.590;10.054;2022-07-19T05:18:51;6.43;;;5.15;;
21494;SDS011;10909;53.590;10.054;2022-07-19T05:21:26;5.70;;;4.97;;
21494;SDS011;10909;53.590;10.054;2022-07-19T05:23:51;6.15;;;4.78;;
21494;SDS011;10909;53.590;10.054;2022-07-19T05:26:20;6.32;;;4.65;;
21494;SDS011;10909;53.590;10.054;2022-07-19T05:28:46;5.05;;;4.55;;
21494;SDS011;10909;53.590;10.054;2022-07-19T05:31:27;5.40;;;4.80;;
21494;SDS011;10909;53.590;10.054;2022-07-19T05:33:52;5.65;;;4.88;;
21494;SDS011;10909;53.590;10.054;2022-07-19T05:36:24;5.85;;;4.50;;
21494;SDS011;10909;53.590;10.054;2022-07-19T05:38:50;6.05;;;4.85;;
21494;SDS011;10909;53.590;10.054;2022-07-19T05:41:28;5.00;;;4.50;;
21494;SDS011;10909;53.590;10.054;2022-07-19T05:43:54;6.32;;;5.10;;
21494;SDS011;10909;53.590;10.054;2022-07-19T05:46:26;6.78;;;4.65;;
21494;SDS011;10909;53.590;10.054;2022-07-19T05:48:51;4.75;;;4.28;;
21494;SDS011;10909;53.590;10.054;2022-07-19T05:51:32;5.00;;;4.35;;
21494;SDS011;10909;53.590;10.054;2022-07-19T05:53:58;5.38;;;4.60;;
21494;SDS011;10909;53.590;10.054;2022-07-19T05:56:32;6.78;;;4.90;;
21494;SDS011;10909;53.590;10.054;2022-07-19T05:58:57;4.82;;;4.43;;
21494;SDS011;10909;53.590;10.054;2022-07-19T06:01:32;5.57;;;4.30;;
21494;SDS011;10909;53.590;10.054;2022-07-19T06:03:59;4.70;;;4.25;;
21494;SDS011;10909;53.590;10.054;2022-07-19T06:06:25;5.28;;;4.50;;
21494;SDS011;10909;53.590;10.054;2022-07-19T06:08:53;5.65;;;4.22;;
21494;SDS011;10909;53.590;10.054;2022-07-19T06:11:19;5.00;;;4.50;;
21494;SDS011;10909;53.590;10.054;2022-07-19T06:13:46;5.45;;;4.60;;
21494;SDS011;10909;53.590;10.054;2022-07-19T06:16:26;5.40;;;4.47;;
21494;SDS011;10909;53.590;10.054;2022-07-19T06:18:52;7.90;;;4.30;;
21494;SDS011;10909;53.590;10.054;2022-07-19T06:21:24;4.43;;;4.00;;
21494;SDS011;10909;53.590;10.054;2022-07-19T06:23:50;6.32;;;4.53;;
21494;SDS011;10909;53.590;10.054;2022-07-19T06:26:26;4.90;;;4.32;;
21494;SDS011;10909;53.590;10.054;2022-07-19T06:28:52;4.63;;;4.00;;
21494;SDS011;10909;53.590;10.054;2022-07-19T06:34:18;4.63;;;3.65;;
21494;SDS011;10909;53.590;10.054;2022-07-19T06:36:59;4.35;;;3.95;;
21494;SDS011;10909;53.590;10.054;2022-07-19T06:39:25;4.50;;;4.05;;
21494;SDS011;10909;53.590;10.054;2022-07-19T06:41:50;6.15;;;3.90;;
21494;SDS011;10909;53.590;10.054;2022-07-19T06:44:16;4.75;;;4.30;;
21494;SDS011;10909;53.590;10.054;2022-07-19T06:46:42;5.70;;;4.47;;
21494;SDS011;10909;53.590;10.054;2022-07-19T06:49:08;4.65;;;4.00;;
21494;SDS011;10909;53.590;10.054;2022-07-19T06:51:33;3.92;;;3.55;;
21494;SDS011;10909;53.590;10.054;2022-07-19T06:53:59;3.90;;;3.50;;
21494;SDS011;10909;53.590;10.054;2022-07-19T06:56:25;3.78;;;3.40;;
21494;SDS011;10909;53.590;10.054;2022-07-19T06:58:50;4.07;;;3.67;;
21494;SDS011;10909;53.590;10.054;2022-07-19T07:01:23;4.57;;;3.92;;
21494;SDS011;10909;53.590;10.054;2022-07-19T07:03:50;3.90;;;3.42;;
21494;SDS011;10909;53.590;10.054;2022-07-19T07:06:23;3.90;;;3.55;;
21494;SDS011;10909;53.590;10.054;2022-07-19T07:08:49;5.00;;;3.92;;
21494;SDS011;10909;53.590;10.054;2022-07-19T07:14:37;4.03;;;3.72;;
21494;SDS011;10909;53.590;10.054;2022-07-19T07:17:03;4.28;;;3.97;;
21494;SDS011;10909;53.590;10.054;2022-07-19T07:19:29;6.13;;;3.90;;
21494;SDS011;10909;53.590;10.054;2022-07-19T07:21:54;4.07;;;3.67;;
21494;SDS011;10909;53.590;10.054;2022-07-19T07:24:22;4.35;;;3.95;;
21494;SDS011;10909;53.590;10.054;2022-07-19T07:26:48;3.95;;;3.65;;
21494;SDS011;10909;53.590;10.054;2022-07-19T07:29:13;4.18;;;3.88;;
21494;SDS011;10909;53.590;10.054;2022-07-19T07:31:39;3.80;;;3.50;;
21494;SDS011;10909;53.590;10.054;2022-07-19T07:34:05;5.78;;;4.28;;
21494;SDS011;10909;53.590;10.054;2022-07-19T07:36:30;4.10;;;3.80;;
21494;SDS011;10909;53.590;10.054;2022-07-19T07:38:56;4.22;;;3.83;;
21494;SDS011;10909;53.590;10.054;2022-07-19T07:41:21;4.07;;;3.72;;
21494;SDS011;10909;53.590;10.054;2022-07-19T07:43:47;4.22;;;3.80;;
21494;SDS011;10909;53.590;10.054;2022-07-19T07:46:13;4.13;;;3.83;;
21494;SDS011;10909;53.590;10.054;2022-07-19T07:48:38;3.53;;;3.22;;
21494;SDS011;10909;53.590;10.054;2022-07-19T07:51:04;3.95;;;3.55;;
21494;SDS011;10909;53.590;10.054;2022-07-19T07:53:30;5.18;;;3.88;;
21494;SDS011;10909;53.590;10.054;2022-07-19T07:55:56;5.72;;;3.90;;
21494;SDS011;10909;53.590;10.054;2022-07-19T07:58:21;4.00;;;3.67;;
21494;SDS011;10909;53.590;10.054;2022-07-19T08:00:47;3.67;;;3.38;;
21494;SDS011;10909;53.590;10.054;2022-07-19T08:03:13;3.40;;;3.10;;
21494;SDS011;10909;53.590;10.054;2022-07-19T08:05:39;4.03;;;3.63;;
21494;SDS011;10909;53.590;10.054;2022-07-19T08:08:04;4.45;;;3.90;;
21494;SDS011;10909;53.590;10.054;2022-07-19T08:10:31;5.28;;;4.78;;
21494;SDS011;10909;53.590;10.054;2022-07-19T08:13:00;5.22;;;4.72;;
21494;SDS011;10909;53.590;10.054;2022-07-19T08:15:26;4.50;;;4.10;;
21494;SDS011;10909;53.590;10.054;2022-07-19T08:17:51;4.47;;;4.05;;
21494;SDS011;10909;53.590;10.054;2022-07-19T08:20:19;5.18;;;4.68;;
21494;SDS011;10909;53.590;10.054;2022-07-19T08:22:44;4.03;;;3.72;;
21494;SDS011;10909;53.590;10.054;2022-07-19T08:25:10;3.92;;;3.63;;
21494;SDS011;10909;53.590;10.054;2022-07-19T08:27:41;3.72;;;3.42;;
21494;SDS011;10909;53.590;10.054;2022-07-19T08:30:08;4.57;;;3.60;;
21494;SDS011;10909;53.590;10.054;2022-07-19T08:32:34;3.72;;;3.45;;
21494;SDS011;10909;53.590;10.054;2022-07-19T08:34:59;3.92;;;3.63;;
21494;SDS011;10909;53.590;10.054;2022-07-19T08:37:25;4.45;;;3.60;;
21494;SDS011;10909;53.590;10.054;2022-07-19T08:39:51;4.45;;;3.83;;
21494;SDS011;10909;53.590;10.054;2022-07-19T08:42:18;4.78;;;3.42;;
21494;SDS011;10909;53.590;10.054;2022-07-19T08:44:45;3.80;;;3.50;;
21494;SDS011;10909;53.590;10.054;2022-07-19T08:47:15;3.78;;;3.47;;
21494;SDS011;10909;53.590;10.054;2022-07-19T08:49:43;4.03;;;3.70;;
21494;SDS011;10909;53.590;10.054;2022-07-19T08:52:09;10.18;;;3.80;;
21494;SDS011;10909;53.590;10.054;2022-07-19T08:54:34;3.65;;;3.30;;
21494;SDS011;10909;53.590;10.054;2022-07-19T08:57:00;3.28;;;2.92;;
21494;SDS011;10909;53.590;10.054;2022-07-19T08:59:44;3.65;;;3.25;;
21494;SDS011;10909;53.590;10.054;2022-07-19T09:02:10;3.45;;;3.15;;
21494;SDS011;10909;53.590;10.054;2022-07-19T09:04:35;3.72;;;3.42;;
21494;SDS011;10909;53.590;10.054;2022-07-19T09:07:01;4.93;;;3.17;;
21494;SDS011;10909;53.590;10.054;2022-07-19T09:09:31;3.30;;;3.00;;
21494;SDS011;10909;53.590;10.054;2022-07-19T09:12:00;3.63;;;2.90;;
21494;SDS011;10909;53.590;10.054;2022-07-19T09:14:28;3.50;;;3.20;;
21494;SDS011;10909;53.590;10.054;2022-07-19T09:17:10;3.20;;;2.95;;
21494;SDS011;10909;53.590;10.054;2022-07-19T09:19:45;3.45;;;3.15;;
21494;SDS011;10909;53.590;10.054;2022-07-19T09:22:14;3.85;;;2.85;;
21494;SDS011;10909;53.590;10.054;2022-07-19T09:24:43;4.60;;;3.40;;
21494;SDS011;10909;53.590;10.054;2022-07-19T09:27:14;3.45;;;3.05;;
21494;SDS011;10909;53.590;10.054;2022-07-19T09:29:43;3.60;;;3.00;;
21494;SDS011;10909;53.590;10.054;2022-07-19T09:32:11;3.70;;;3.28;;
21494;SDS011;10909;53.590;10.054;2022-07-19T09:34:59;3.45;;;3.15;;
21494;SDS011;10909;53.590;10.054;2022-07-19T09:37:27;3.53;;;3.00;;
21494;SDS011;10909;53.590;10.054;2022-07-19T09:40:00;3.55;;;3.25;;
21494;SDS011;10909;53.590;10.054;2022-07-19T09:42:37;4.30;;;3.90;;
21494;SDS011;10909;53.590;10.054;2022-07-19T09:50:05;3.17;;;2.88;;
21494;SDS011;10909;53.590;10.054;2022-07-19T09:52:34;3.85;;;3.50;;
21494;SDS011;10909;53.590;10.054;2022-07-19T09:55:02;3.97;;;3.05;;
21494;SDS011;10909;53.590;10.054;2022-07-19T09:57:29;3.47;;;3.15;;
21494;SDS011;10909;53.590;10.054;2022-07-19T09:59:59;2.95;;;2.75;;
21494;SDS011;10909;53.590;10.054;2022-07-19T10:02:28;3.10;;;2.90;;
21494;SDS011;10909;53.590;10.054;2022-07-19T10:04:56;3.58;;;3.28;;
21494;SDS011;10909;53.590;10.054;2022-07-19T10:07:22;3.03;;;2.72;;
21494;SDS011;10909;53.590;10.054;2022-07-19T10:09:49;3.38;;;2.58;;
21494;SDS011;10909;53.590;10.054;2022-07-19T10:12:15;2.97;;;2.45;;
21494;SDS011;10909;53.590;10.054;2022-07-19T10:14:41;2.67;;;2.47;;
21494;SDS011;10909;53.590;10.054;2022-07-19T10:17:14;3.50;;;3.00;;
21494;SDS011;10909;53.590;10.054;2022-07-19T10:19:45;2.80;;;2.55;;
21494;SDS011;10909;53.590;10.054;2022-07-19T10:22:22;3.28;;;2.38;;
21494;SDS011;10909;53.590;10.054;2022-07-19T10:24:53;2.97;;;2.67;;
21494;SDS011;10909;53.590;10.054;2022-07-19T10:29:51;2.85;;;2.55;;
21494;SDS011;10909;53.590;10.054;2022-07-19T10:32:20;2.90;;;2.67;;
21494;SDS011;10909;53.590;10.054;2022-07-19T10:34:57;3.10;;;2.38;;
21494;SDS011;10909;53.590;10.054;2022-07-19T10:43:11;2.45;;;2.25;;
21494;SDS011;10909;53.590;10.054;2022-07-19T10:45:41;2.72;;;2.10;;
21494;SDS011;10909;53.590;10.054;2022-07-19T10:48:12;2.55;;;1.80;;
21494;SDS011;10909;53.590;10.054;2022-07-19T10:50:43;2.40;;;2.20;;
21494;SDS011;10909;53.590;10.054;2022-07-19T10:53:09;2.47;;;2.25;;
21494;SDS011;10909;53.590;10.054;2022-07-19T10:55:34;2.45;;;2.25;;
21494;SDS011;10909;53.590;10.054;2022-07-19T10:58:09;2.03;;;1.90;;
21494;SDS011;10909;53.590;10.054;2022-07-19T11:08:32;1.80;;;1.70;;
21494;SDS011;10909;53.590;10.054;2022-07-19T11:11:09;2.60;;;2.10;;
21494;SDS011;10909;53.590;10.054;2022-07-19T11:13:37;2.33;;;2.13;;
21494;SDS011;10909;53.590;10.054;2022-07-19T11:16:05;1.95;;;1.77;;
21494;SDS011;10909;53.590;10.054;2022-07-19T11:18:31;1.90;;;1.80;;
21494;SDS011;10909;53.590;10.054;2022-07-19T11:20:58;2.30;;;2.10;;
21494;SDS011;10909;53.590;10.054;2022-07-19T11:23:33;2.42;;;2.10;;
21494;SDS011;10909;53.590;10.054;2022-07-19T11:26:13;2.63;;;2.10;;
21494;SDS011;10909;53.590;10.054;2022-07-19T11:28:41;2.35;;;2.15;;
21494;SDS011;10909;53.590;10.054;2022-07-19T11:31:23;2.15;;;1.95;;
21494;SDS011;10909;53.590;10.054;2022-07-19T11:33:51;2.20;;;2.00;;
21494;SDS011;10909;53.590;10.054;2022-07-19T11:36:19;1.85;;;1.75;;
21494;SDS011;10909;53.590;10.054;2022-07-19T11:43:52;2.22;;;2.03;;
21494;SDS011;10909;53.590;10.054;2022-07-19T11:46:17;1.88;;;1.75;;
21494;SDS011;10909;53.590;10.054;2022-07-19T11:48:54;4.13;;;2.13;;
21494;SDS011;10909;53.590;10.054;2022-07-19T11:51:21;2.50;;;2.15;;
21494;SDS011;10909;53.590;10.054;2022-07-19T11:53:48;2.65;;;2.45;;
21494;SDS011;10909;53.590;10.054;2022-07-19T11:56:23;2.00;;;1.80;;
21494;SDS011;10909;53.590;10.054;2022-07-19T11:58:51;3.33;;;2.17;;
21494;SDS011;10909;53.590;10.054;2022-07-19T12:01:36;2.10;;;1.90;;
21494;SDS011;10909;53.590;10.054;2022-07-19T12:04:04;2.58;;;2.20;;
21494;SDS011;10909;53.590;10.054;2022-07-19T12:06:37;1.88;;;1.77;;
21494;SDS011;10909;53.590;10.054;2022-07-19T12:09:04;2.17;;;1.98;;
21494;SDS011;10909;53.590;10.054;2022-07-19T12:11:38;2.72;;;2.42;;
21494;SDS011;10909;53.590;10.054;2022-07-19T12:14:21;2.20;;;2.00;;
21494;SDS011;10909;53.590;10.054;2022-07-19T12:16:50;2.15;;;1.98;;
21494;SDS011;10909;53.590;10.054;2022-07-19T12:19:38;2.70;;;2.08;;
21494;SDS011;10909;53.590;10.054;2022-07-19T12:22:04;2.30;;;2.10;;
21494;SDS011;10909;53.590;10.054;2022-07-19T12:24:31;2.20;;;2.00;;
21494;SDS011;10909;53.590;10.054;2022-07-19T12:26:59;2.28;;;2.08;;
21494;SDS011;10909;53.590;10.054;2022-07-19T12:29:45;2.50;;;2.30;;
21494;SDS011;10909;53.590;10.054;2022-07-19T12:32:13;3.15;;;1.85;;
21494;SDS011;10909;53.590;10.054;2022-07-19T12:34:43;1.65;;;1.55;;
21494;SDS011;10909;53.590;10.054;2022-07-19T12:40:02;1.98;;;1.70;;
21494;SDS011;10909;53.590;10.054;2022-07-19T12:42:39;1.63;;;1.52;;
21494;SDS011;10909;53.590;10.054;2022-07-19T12:45:31;2.45;;;1.50;;
21494;SDS011;10909;53.590;10.054;2022-07-19T12:47:57;1.80;;;1.70;;
21494;SDS011;10909;53.590;10.054;2022-07-19T12:52:50;1.65;;;1.55;;
21494;SDS011;10909;53.590;10.054;2022-07-19T12:55:17;1.95;;;1.63;;
21494;SDS011;10909;53.590;10.054;2022-07-19T12:57:44;2.00;;;1.75;;
21494;SDS011;10909;53.590;10.054;2022-07-19T13:00:10;1.80;;;1.70;;
21494;SDS011;10909;53.590;10.054;2022-07-19T13:02:36;2.00;;;1.80;;
21494;SDS011;10909;53.590;10.054;2022-07-19T13:05:02;1.92;;;1.83;;
21494;SDS011;10909;53.590;10.054;2022-07-19T13:07:28;2.03;;;1.73;;
21494;SDS011;10909;53.590;10.054;2022-07-19T13:09:54;1.80;;;1.70;;
21494;SDS011;10909;53.590;10.054;2022-07-19T13:12:20;3.15;;;2.00;;
21494;SDS011;10909;53.590;10.054;2022-07-19T13:14:46;1.75;;;1.65;;
21494;SDS011;10909;53.590;10.054;2022-07-19T13:17:11;2.00;;;1.80;;
21494;SDS011;10909;53.590;10.054;2022-07-19T13:19:38;2.58;;;1.90;;
21494;SDS011;10909;53.590;10.054;2022-07-19T13:22:04;1.83;;;1.52;;
21494;SDS011;10909;53.590;10.054;2022-07-19T13:24:30;1.80;;;1.70;;
21494;SDS011;10909;53.590;10.054;2022-07-19T13:26:56;2.10;;;1.90;;
21494;SDS011;10909;53.590;10.054;2022-07-19T13:29:22;2.30;;;1.88;;
21494;SDS011;10909;53.590;10.054;2022-07-19T13:31:48;3.15;;;1.90;;
21494;SDS011;10909;53.590;10.054;2022-07-19T13:34:14;1.92;;;1.80;;
21494;SDS011;10909;53.590;10.054;2022-07-19T13:36:40;4.38;;;1.65;;
21494;SDS011;10909;53.590;10.054;2022-07-19T13:39:06;2.13;;;1.88;;
21494;SDS011;10909;53.590;10.054;2022-07-19T13:41:34;2.58;;;1.80;;
21494;SDS011;10909;53.590;10.054;2022-07-19T13:44:01;2.47;;;1.88;;
21494;SDS011;10909;53.590;10.054;2022-07-19T13:46:26;2.28;;;1.67;;
21494;SDS011;10909;53.590;10.054;2022-07-19T13:48:52;2.10;;;1.80;;
21494;SDS011;10909;53.590;10.054;2022-07-19T13:51:18;1.70;;;1.60;;
21494;SDS011;10909;53.590;10.054;2022-07-19T13:53:43;1.80;;;1.70;;
21494;SDS011;10909;53.590;10.054;2022-07-19T13:56:09;2.00;;;1.67;;
21494;SDS011;10909;53.590;10.054;2022-07-19T13:58:35;1.80;;;1.70;;
21494;SDS011;10909;53.590;10.054;2022-07-19T14:01:01;1.83;;;1.70;;
21494;SDS011;10909;53.590;10.054;2022-07-19T14:03:27;2.13;;;1.92;;
21494;SDS011;10909;53.590;10.054;2022-07-19T14:05:52;2.50;;;1.90;;
21494;SDS011;10909;53.590;10.054;2022-07-19T14:08:18;1.88;;;1.77;;
21494;SDS011;10909;53.590;10.054;2022-07-19T14:10:44;3.10;;;2.00;;
21494;SDS011;10909;53.590;10.054;2022-07-19T14:13:10;1.77;;;1.67;;
21494;SDS011;10909;53.590;10.054;2022-07-19T14:15:37;2.13;;;1.85;;
21494;SDS011;10909;53.590;10.054;2022-07-19T14:18:03;2.05;;;1.58;;
21494;SDS011;10909;53.590;10.054;2022-07-19T14:20:29;2.25;;;1.60;;
21494;SDS011;10909;53.590;10.054;2022-07-19T14:22:54;2.45;;;1.70;;
21494;SDS011;10909;53.590;10.054;2022-07-19T14:25:20;1.70;;;1.60;;
21494;SDS011;10909;53.590;10.054;2022-07-19T14:27:47;2.00;;;1.80;;
21494;SDS011;10909;53.590;10.054;2022-07-19T14:30:13;2.00;;;1.70;;
21494;SDS011;10909;53.590;10.054;2022-07-19T14:32:39;1.83;;;1.60;;
21494;SDS011;10909;53.590;10.054;2022-07-19T14:35:05;2.10;;;1.90;;
21494;SDS011;10909;53.590;10.054;2022-07-19T14:37:31;2.40;;;1.60;;
21494;SDS011;10909;53.590;10.054;2022-07-19T14:39:57;2.75;;;1.65;;
21494;SDS011;10909;53.590;10.054;2022-07-19T14:42:22;2.00;;;1.60;;
21494;SDS011;10909;53.590;10.054;2022-07-19T14:44:48;1.95;;;1.75;;
21494;SDS011;10909;53.590;10.054;2022-07-19T14:47:14;2.28;;;1.75;;
21494;SDS011;10909;53.590;10.054;2022-07-19T14:49:40;3.45;;;1.60;;
21494;SDS011;10909;53.590;10.054;2022-07-19T14:52:06;2.92;;;1.73;;
21494;SDS011;10909;53.590;10.054;2022-07-19T14:54:32;2.80;;;1.85;;
21494;SDS011;10909;53.590;10.054;2022-07-19T14:56:58;2.88;;;1.88;;
21494;SDS011;10909;53.590;10.054;2022-07-19T14:59:24;2.08;;;1.80;;
21494;SDS011;10909;53.590;10.054;2022-07-19T15:01:50;1.92;;;1.45;;
21494;SDS011;10909;53.590;10.054;2022-07-19T15:04:17;2.33;;;1.70;;
21494;SDS011;10909;53.590;10.054;2022-07-19T15:06:43;3.38;;;1.60;;
21494;SDS011;10909;53.590;10.054;2022-07-19T15:09:10;2.45;;;1.70;;
21494;SDS011;10909;53.590;10.054;2022-07-19T15:11:37;2.60;;;1.80;;
21494;SDS011;10909;53.590;10.054;2022-07-19T15:14:03;3.40;;;2.10;;
21494;SDS011;10909;53.590;10.054;2022-07-19T15:16:29;2.78;;;2.25;;
21494;SDS011;10909;53.590;10.054;2022-07-19T15:18:55;3.35;;;2.00;;
21494;SDS011;10909;53.590;10.054;2022-07-19T15:21:21;4.10;;;2.10;;
21494;SDS011;10909;53.590;10.054;2022-07-19T15:23:46;2.80;;;2.20;;
21494;SDS011;10909;53.590;10.054;2022-07-19T15:26:12;2.00;;;1.80;;
21494;SDS011;10909;53.590;10.054;2022-07-19T15:28:38;1.90;;;1.60;;
21494;SDS011;10909;53.590;10.054;2022-07-19T15:31:04;2.10;;;1.90;;
21494;SDS011;10909;53.590;10.054;2022-07-19T15:33:31;1.80;;;1.70;;
21494;SDS011;10909;53.590;10.054;2022-07-19T15:35:57;2.92;;;1.80;;